sensor_id;sensor_type;location;lat;lon;timestamp;temperature;humidity
20366;DHT22;10341;49.894;8.822;2023-05-07T00:02:51;12.90;99.90
20366;DHT22;10341;49.894;8.822;2023-05-07T00:08:11;12.90;99.90
20366;DHT22;10341;49.894;8.822;2023-05-07T00:13:31;12.90;99.90
20366;DHT22;10341;49.894;8.822;2023-05-07T00:18:54;12.90;99.90
20366;DHT22;10341;49.894;8.822;2023-05-07T00:24:13;12.90;99.90
20366;DHT22;10341;49.894;8.822;2023-05-07T00:29:32;13.00;99.90
20366;DHT22;10341;49.894;8.822;2023-05-07T00:34:51;13.00;99.90
20366;DHT22;10341;49.894;8.822;2023-05-07T00:40:11;13.10;99.90
20366;DHT22;10341;49.894;8.822;2023-05-07T00:45:31;13.00;99.90
20366;DHT22;10341;49.894;8.822;2023-05-07T00:50:50;13.00;99.90
20366;DHT22;10341;49.894;8.822;2023-05-07T00:56:10;12.90;99.90
20366;DHT22;10341;49.894;8.822;2023-05-07T01:01:31;12.90;99.90
20366;DHT22;10341;49.894;8.822;2023-05-07T01:06:51;12.80;99.90
20366;DHT22;10341;49.894;8.822;2023-05-07T01:12:11;12.70;99.90
20366;DHT22;10341;49.894;8.822;2023-05-07T01:17:39;12.70;99.90
20366;DHT22;10341;49.894;8.822;2023-05-07T01:23:03;12.60;99.90
20366;DHT22;10341;49.894;8.822;2023-05-07T01:28:23;12.60;99.90
20366;DHT22;10341;49.894;8.822;2023-05-07T01:33:43;12.50;99.90
20366;DHT22;10341;49.894;8.822;2023-05-07T01:39:04;12.50;99.90
20366;DHT22;10341;49.894;8.822;2023-05-07T01:44:26;12.40;99.90
20366;DHT22;10341;49.894;8.822;2023-05-07T01:49:46;12.40;99.90
20366;DHT22;10341;49.894;8.822;2023-05-07T01:55:06;12.40;99.90
20366;DHT22;10341;49.894;8.822;2023-05-07T02:00:26;12.40;99.90
20366;DHT22;10341;49.894;8.822;2023-05-07T02:05:45;12.40;99.90
20366;DHT22;10341;49.894;8.822;2023-05-07T02:11:26;12.30;99.90
20366;DHT22;10341;49.894;8.822;2023-05-07T02:16:46;12.30;99.90
20366;DHT22;10341;49.894;8.822;2023-05-07T02:22:07;12.40;99.90
20366;DHT22;10341;49.894;8.822;2023-05-07T02:27:26;12.30;99.90
20366;DHT22;10341;49.894;8.822;2023-05-07T02:32:46;12.30;99.90
20366;DHT22;10341;49.894;8.822;2023-05-07T02:38:05;12.30;99.90
20366;DHT22;10341;49.894;8.822;2023-05-07T02:43:26;12.20;99.90
20366;DHT22;10341;49.894;8.822;2023-05-07T02:48:45;12.20;99.90
20366;DHT22;10341;49.894;8.822;2023-05-07T02:54:04;12.10;99.90
20366;DHT22;10341;49.894;8.822;2023-05-07T02:59:25;12.10;99.90
20366;DHT22;10341;49.894;8.822;2023-05-07T03:04:46;12.00;99.90
20366;DHT22;10341;49.894;8.822;2023-05-07T03:10:06;12.10;99.90
20366;DHT22;10341;49.894;8.822;2023-05-07T03:15:25;12.10;99.90
20366;DHT22;10341;49.894;8.822;2023-05-07T03:20:46;12.10;99.90
20366;DHT22;10341;49.894;8.822;2023-05-07T03:26:05;12.00;99.90
20366;DHT22;10341;49.894;8.822;2023-05-07T03:31:25;12.00;99.90
20366;DHT22;10341;49.894;8.822;2023-05-07T03:36:45;12.00;99.90
20366;DHT22;10341;49.894;8.822;2023-05-07T03:42:06;12.10;99.90
20366;DHT22;10341;49.894;8.822;2023-05-07T03:47:26;12.10;99.90
20366;DHT22;10341;49.894;8.822;2023-05-07T03:52:46;12.10;99.90
20366;DHT22;10341;49.894;8.822;2023-05-07T03:58:08;12.20;99.90
20366;DHT22;10341;49.894;8.822;2023-05-07T04:03:27;12.20;99.90
20366;DHT22;10341;49.894;8.822;2023-05-07T04:08:50;12.20;99.90
20366;DHT22;10341;49.894;8.822;2023-05-07T04:14:09;12.30;99.90
20366;DHT22;10341;49.894;8.822;2023-05-07T04:19:30;12.30;99.90
20366;DHT22;10341;49.894;8.822;2023-05-07T04:24:49;12.40;99.90
20366;DHT22;10341;49.894;8.822;2023-05-07T04:30:09;12.40;99.90
20366;DHT22;10341;49.894;8.822;2023-05-07T04:35:32;12.50;99.90
20366;DHT22;10341;49.894;8.822;2023-05-07T04:40:51;12.60;99.90
20366;DHT22;10341;49.894;8.822;2023-05-07T04:46:15;12.60;99.90
20366;DHT22;10341;49.894;8.822;2023-05-07T04:51:36;12.70;99.90
20366;DHT22;10341;49.894;8.822;2023-05-07T04:56:56;12.80;99.90
20366;DHT22;10341;49.894;8.822;2023-05-07T05:02:15;12.90;99.90
20366;DHT22;10341;49.894;8.822;2023-05-07T05:07:35;13.00;99.90
20366;DHT22;10341;49.894;8.822;2023-05-07T05:12:54;13.20;99.90
20366;DHT22;10341;49.894;8.822;2023-05-07T05:18:15;13.40;99.90
20366;DHT22;10341;49.894;8.822;2023-05-07T05:23:35;13.50;99.90
20366;DHT22;10341;49.894;8.822;2023-05-07T05:28:55;13.70;99.90
20366;DHT22;10341;49.894;8.822;2023-05-07T05:34:17;14.00;99.90
20366;DHT22;10341;49.894;8.822;2023-05-07T05:39:39;14.30;99.90
20366;DHT22;10341;49.894;8.822;2023-05-07T05:44:59;14.50;99.90
20366;DHT22;10341;49.894;8.822;2023-05-07T05:50:21;14.60;99.90
20366;DHT22;10341;49.894;8.822;2023-05-07T05:55:41;14.70;99.90
20366;DHT22;10341;49.894;8.822;2023-05-07T06:01:01;14.80;99.90
20366;DHT22;10341;49.894;8.822;2023-05-07T06:06:22;15.10;99.90
20366;DHT22;10341;49.894;8.822;2023-05-07T06:11:41;15.30;99.90
20366;DHT22;10341;49.894;8.822;2023-05-07T06:17:01;15.50;99.90
20366;DHT22;10341;49.894;8.822;2023-05-07T06:22:21;15.80;99.90
20366;DHT22;10341;49.894;8.822;2023-05-07T06:27:41;16.00;99.90
20366;DHT22;10341;49.894;8.822;2023-05-07T06:33:01;16.10;99.90
20366;DHT22;10341;49.894;8.822;2023-05-07T06:38:20;16.20;99.90
20366;DHT22;10341;49.894;8.822;2023-05-07T06:43:41;16.30;99.90
20366;DHT22;10341;49.894;8.822;2023-05-07T06:49:24;16.60;99.90
20366;DHT22;10341;49.894;8.822;2023-05-07T06:54:44;16.90;99.90
20366;DHT22;10341;49.894;8.822;2023-05-07T07:00:07;17.20;99.90
20366;DHT22;10341;49.894;8.822;2023-05-07T07:05:36;17.40;99.90
20366;DHT22;10341;49.894;8.822;2023-05-07T07:10:56;17.60;99.90
20366;DHT22;10341;49.894;8.822;2023-05-07T07:16:16;17.60;99.90
20366;DHT22;10341;49.894;8.822;2023-05-07T07:21:36;17.50;99.90
20366;DHT22;10341;49.894;8.822;2023-05-07T07:26:55;17.50;99.90
20366;DHT22;10341;49.894;8.822;2023-05-07T07:32:15;17.60;99.90
20366;DHT22;10341;49.894;8.822;2023-05-07T07:37:35;17.70;99.90
20366;DHT22;10341;49.894;8.822;2023-05-07T07:42:56;18.00;99.90
20366;DHT22;10341;49.894;8.822;2023-05-07T07:48:15;17.90;99.90
20366;DHT22;10341;49.894;8.822;2023-05-07T07:53:35;18.30;99.90
20366;DHT22;10341;49.894;8.822;2023-05-07T07:58:55;18.50;99.90
20366;DHT22;10341;49.894;8.822;2023-05-07T08:04:14;18.40;99.90
20366;DHT22;10341;49.894;8.822;2023-05-07T08:09:36;18.50;99.90
20366;DHT22;10341;49.894;8.822;2023-05-07T08:14:57;18.70;99.90
20366;DHT22;10341;49.894;8.822;2023-05-07T08:20:16;18.80;99.90
20366;DHT22;10341;49.894;8.822;2023-05-07T08:25:36;19.10;99.90
20366;DHT22;10341;49.894;8.822;2023-05-07T08:30:57;19.40;99.90
20366;DHT22;10341;49.894;8.822;2023-05-07T08:36:20;19.60;99.90
20366;DHT22;10341;49.894;8.822;2023-05-07T08:41:40;20.10;99.90
20366;DHT22;10341;49.894;8.822;2023-05-07T08:47:01;20.50;99.90
20366;DHT22;10341;49.894;8.822;2023-05-07T08:52:21;20.70;99.90
20366;DHT22;10341;49.894;8.822;2023-05-07T08:57:41;21.00;99.90
20366;DHT22;10341;49.894;8.822;2023-05-07T09:03:02;21.30;99.90
20366;DHT22;10341;49.894;8.822;2023-05-07T09:08:25;21.30;99.90
20366;DHT22;10341;49.894;8.822;2023-05-07T09:13:45;21.40;99.90
20366;DHT22;10341;49.894;8.822;2023-05-07T09:19:05;21.30;99.90
20366;DHT22;10341;49.894;8.822;2023-05-07T09:24:24;21.70;99.90
20366;DHT22;10341;49.894;8.822;2023-05-07T09:29:44;21.70;99.90
20366;DHT22;10341;49.894;8.822;2023-05-07T09:35:04;21.40;99.90
20366;DHT22;10341;49.894;8.822;2023-05-07T09:40:26;21.90;99.90
20366;DHT22;10341;49.894;8.822;2023-05-07T09:45:47;21.70;99.90
20366;DHT22;10341;49.894;8.822;2023-05-07T09:51:24;22.50;99.90
20366;DHT22;10341;49.894;8.822;2023-05-07T09:56:48;22.70;99.90
20366;DHT22;10341;49.894;8.822;2023-05-07T10:02:09;23.30;99.90
20366;DHT22;10341;49.894;8.822;2023-05-07T10:07:37;24.30;99.90
20366;DHT22;10341;49.894;8.822;2023-05-07T10:13:02;24.40;99.90
20366;DHT22;10341;49.894;8.822;2023-05-07T10:18:26;23.70;99.90
20366;DHT22;10341;49.894;8.822;2023-05-07T10:24:06;23.50;99.90
20366;DHT22;10341;49.894;8.822;2023-05-07T10:29:53;23.50;99.90
20366;DHT22;10341;49.894;8.822;2023-05-07T10:35:26;24.00;99.90
20366;DHT22;10341;49.894;8.822;2023-05-07T10:40:47;24.60;99.90
20366;DHT22;10341;49.894;8.822;2023-05-07T10:46:10;25.30;99.40
20366;DHT22;10341;49.894;8.822;2023-05-07T10:51:33;26.00;98.40
20366;DHT22;10341;49.894;8.822;2023-05-07T11:08:20;29.00;92.20
20366;DHT22;10341;49.894;8.822;2023-05-07T11:13:47;28.80;91.40
20366;DHT22;10341;49.894;8.822;2023-05-07T11:19:50;27.80;92.10
20366;DHT22;10341;49.894;8.822;2023-05-07T11:25:18;28.60;91.70
20366;DHT22;10341;49.894;8.822;2023-05-07T11:30:48;28.70;91.00
20366;DHT22;10341;49.894;8.822;2023-05-07T11:36:10;27.30;90.20
20366;DHT22;10341;49.894;8.822;2023-05-07T11:41:37;27.60;90.60
20366;DHT22;10341;49.894;8.822;2023-05-07T11:46:56;27.90;89.60
20366;DHT22;10341;49.894;8.822;2023-05-07T11:52:17;29.10;89.50
20366;DHT22;10341;49.894;8.822;2023-05-07T11:57:36;30.10;85.80
20366;DHT22;10341;49.894;8.822;2023-05-07T12:02:56;28.70;86.70
20366;DHT22;10341;49.894;8.822;2023-05-07T12:08:17;28.10;86.80
20366;DHT22;10341;49.894;8.822;2023-05-07T12:13:37;27.60;89.80
20366;DHT22;10341;49.894;8.822;2023-05-07T12:18:56;27.60;90.20
20366;DHT22;10341;49.894;8.822;2023-05-07T12:24:17;28.10;86.20
20366;DHT22;10341;49.894;8.822;2023-05-07T12:29:36;27.90;87.00
20366;DHT22;10341;49.894;8.822;2023-05-07T12:34:59;28.70;87.10
20366;DHT22;10341;49.894;8.822;2023-05-07T12:40:18;29.70;83.90
20366;DHT22;10341;49.894;8.822;2023-05-07T12:45:38;29.50;82.10
20366;DHT22;10341;49.894;8.822;2023-05-07T12:51:01;29.60;80.90
20366;DHT22;10341;49.894;8.822;2023-05-07T12:56:21;30.70;79.50
20366;DHT22;10341;49.894;8.822;2023-05-07T13:01:43;31.70;76.70
20366;DHT22;10341;49.894;8.822;2023-05-07T13:07:03;32.30;77.70
20366;DHT22;10341;49.894;8.822;2023-05-07T13:12:23;33.20;70.90
20366;DHT22;10341;49.894;8.822;2023-05-07T13:17:42;32.80;70.50
20366;DHT22;10341;49.894;8.822;2023-05-07T13:23:02;32.00;70.10
20366;DHT22;10341;49.894;8.822;2023-05-07T13:28:24;30.80;71.80
20366;DHT22;10341;49.894;8.822;2023-05-07T13:33:43;29.90;73.40
20366;DHT22;10341;49.894;8.822;2023-05-07T13:39:03;30.60;74.50
20366;DHT22;10341;49.894;8.822;2023-05-07T13:44:22;30.40;73.90
20366;DHT22;10341;49.894;8.822;2023-05-07T13:49:42;29.70;73.90
20366;DHT22;10341;49.894;8.822;2023-05-07T13:55:02;29.80;74.80
20366;DHT22;10341;49.894;8.822;2023-05-07T14:00:21;29.50;74.50
20366;DHT22;10341;49.894;8.822;2023-05-07T14:05:41;28.40;75.90
20366;DHT22;10341;49.894;8.822;2023-05-07T14:11:01;28.70;76.10
20366;DHT22;10341;49.894;8.822;2023-05-07T14:16:20;29.20;75.90
20366;DHT22;10341;49.894;8.822;2023-05-07T14:21:39;29.70;75.40
20366;DHT22;10341;49.894;8.822;2023-05-07T14:26:59;29.60;75.50
20366;DHT22;10341;49.894;8.822;2023-05-07T14:32:22;29.30;75.30
20366;DHT22;10341;49.894;8.822;2023-05-07T14:37:42;28.50;76.60
20366;DHT22;10341;49.894;8.822;2023-05-07T14:43:01;27.30;80.00
20366;DHT22;10341;49.894;8.822;2023-05-07T14:48:21;26.50;81.90
20366;DHT22;10341;49.894;8.822;2023-05-07T14:53:41;26.70;80.00
20366;DHT22;10341;49.894;8.822;2023-05-07T14:59:02;26.10;80.90
20366;DHT22;10341;49.894;8.822;2023-05-07T15:04:21;25.40;82.60
20366;DHT22;10341;49.894;8.822;2023-05-07T15:09:42;24.90;85.60
20366;DHT22;10341;49.894;8.822;2023-05-07T15:15:02;24.40;86.80
20366;DHT22;10341;49.894;8.822;2023-05-07T15:20:21;23.90;88.00
20366;DHT22;10341;49.894;8.822;2023-05-07T15:25:41;23.60;90.10
20366;DHT22;10341;49.894;8.822;2023-05-07T15:31:00;23.40;90.00
20366;DHT22;10341;49.894;8.822;2023-05-07T15:36:20;23.50;90.30
20366;DHT22;10341;49.894;8.822;2023-05-07T15:41:39;23.30;90.30
20366;DHT22;10341;49.894;8.822;2023-05-07T15:46:59;23.40;90.60
20366;DHT22;10341;49.894;8.822;2023-05-07T15:52:19;23.20;91.00
20366;DHT22;10341;49.894;8.822;2023-05-07T15:57:39;23.00;91.40
20366;DHT22;10341;49.894;8.822;2023-05-07T16:02:59;22.70;91.80
20366;DHT22;10341;49.894;8.822;2023-05-07T16:08:19;22.50;92.00
20366;DHT22;10341;49.894;8.822;2023-05-07T16:13:38;22.40;93.30
20366;DHT22;10341;49.894;8.822;2023-05-07T16:18:58;22.20;95.00
20366;DHT22;10341;49.894;8.822;2023-05-07T16:24:17;22.00;97.30
20366;DHT22;10341;49.894;8.822;2023-05-07T16:29:36;21.30;99.90
20366;DHT22;10341;49.894;8.822;2023-05-07T16:34:56;20.30;99.90
20366;DHT22;10341;49.894;8.822;2023-05-07T16:40:16;19.60;99.90
20366;DHT22;10341;49.894;8.822;2023-05-07T16:45:35;19.30;99.90
20366;DHT22;10341;49.894;8.822;2023-05-07T16:50:54;19.00;99.90
20366;DHT22;10341;49.894;8.822;2023-05-07T16:56:15;18.40;99.90
20366;DHT22;10341;49.894;8.822;2023-05-07T17:01:35;18.00;99.90
20366;DHT22;10341;49.894;8.822;2023-05-07T17:06:54;17.90;99.90
20366;DHT22;10341;49.894;8.822;2023-05-07T17:12:15;17.70;99.90
20366;DHT22;10341;49.894;8.822;2023-05-07T17:17:34;17.50;99.90
20366;DHT22;10341;49.894;8.822;2023-05-07T17:22:54;17.30;99.90
20366;DHT22;10341;49.894;8.822;2023-05-07T17:28:14;17.10;99.90
20366;DHT22;10341;49.894;8.822;2023-05-07T17:33:33;17.00;99.90
20366;DHT22;10341;49.894;8.822;2023-05-07T17:38:52;16.90;99.90
20366;DHT22;10341;49.894;8.822;2023-05-07T17:44:12;16.80;99.90
20366;DHT22;10341;49.894;8.822;2023-05-07T17:49:31;16.70;99.90
20366;DHT22;10341;49.894;8.822;2023-05-07T17:54:51;16.70;99.90
20366;DHT22;10341;49.894;8.822;2023-05-07T18:00:10;16.80;99.90
20366;DHT22;10341;49.894;8.822;2023-05-07T18:05:30;16.80;99.90
20366;DHT22;10341;49.894;8.822;2023-05-07T18:10:49;16.80;99.90
20366;DHT22;10341;49.894;8.822;2023-05-07T18:16:09;16.80;99.90
20366;DHT22;10341;49.894;8.822;2023-05-07T18:21:28;16.70;99.90
20366;DHT22;10341;49.894;8.822;2023-05-07T18:26:47;16.50;99.90
20366;DHT22;10341;49.894;8.822;2023-05-07T18:32:07;16.50;99.90
20366;DHT22;10341;49.894;8.822;2023-05-07T18:37:26;16.50;99.90
20366;DHT22;10341;49.894;8.822;2023-05-07T18:42:46;16.50;99.90
20366;DHT22;10341;49.894;8.822;2023-05-07T18:48:05;16.40;99.90
20366;DHT22;10341;49.894;8.822;2023-05-07T18:53:25;16.30;99.90
20366;DHT22;10341;49.894;8.822;2023-05-07T18:58:44;16.20;99.90
20366;DHT22;10341;49.894;8.822;2023-05-07T19:04:04;16.20;99.90
20366;DHT22;10341;49.894;8.822;2023-05-07T19:09:23;16.10;99.90
20366;DHT22;10341;49.894;8.822;2023-05-07T19:14:43;16.10;99.90
20366;DHT22;10341;49.894;8.822;2023-05-07T19:20:05;16.10;99.90
20366;DHT22;10341;49.894;8.822;2023-05-07T19:25:24;16.00;99.90
20366;DHT22;10341;49.894;8.822;2023-05-07T19:30:44;16.00;99.90
20366;DHT22;10341;49.894;8.822;2023-05-07T19:36:03;15.90;99.90
20366;DHT22;10341;49.894;8.822;2023-05-07T19:41:22;15.80;99.90
20366;DHT22;10341;49.894;8.822;2023-05-07T19:46:41;15.80;99.90
20366;DHT22;10341;49.894;8.822;2023-05-07T19:52:03;15.80;99.90
20366;DHT22;10341;49.894;8.822;2023-05-07T19:57:23;15.80;99.90
20366;DHT22;10341;49.894;8.822;2023-05-07T20:02:42;15.80;99.90
20366;DHT22;10341;49.894;8.822;2023-05-07T20:08:02;15.80;99.90
20366;DHT22;10341;49.894;8.822;2023-05-07T20:13:22;15.80;99.90
20366;DHT22;10341;49.894;8.822;2023-05-07T20:18:42;15.80;99.90
20366;DHT22;10341;49.894;8.822;2023-05-07T20:24:01;15.80;99.90
20366;DHT22;10341;49.894;8.822;2023-05-07T20:29:21;15.80;99.90
20366;DHT22;10341;49.894;8.822;2023-05-07T20:34:41;15.80;99.90
20366;DHT22;10341;49.894;8.822;2023-05-07T20:40:01;15.80;99.90
20366;DHT22;10341;49.894;8.822;2023-05-07T20:45:21;15.80;99.90
20366;DHT22;10341;49.894;8.822;2023-05-07T20:50:41;15.70;99.90
20366;DHT22;10341;49.894;8.822;2023-05-07T20:56:00;15.70;99.90
20366;DHT22;10341;49.894;8.822;2023-05-07T21:01:18;15.70;99.90
20366;DHT22;10341;49.894;8.822;2023-05-07T21:06:38;15.60;99.90
20366;DHT22;10341;49.894;8.822;2023-05-07T21:11:58;15.60;99.90
20366;DHT22;10341;49.894;8.822;2023-05-07T21:17:17;15.60;99.90
20366;DHT22;10341;49.894;8.822;2023-05-07T21:22:36;15.60;99.90
20366;DHT22;10341;49.894;8.822;2023-05-07T21:27:55;15.50;99.90
20366;DHT22;10341;49.894;8.822;2023-05-07T21:33:14;15.50;99.90
20366;DHT22;10341;49.894;8.822;2023-05-07T21:38:35;15.40;99.90
20366;DHT22;10341;49.894;8.822;2023-05-07T21:43:55;15.40;99.90
20366;DHT22;10341;49.894;8.822;2023-05-07T21:49:14;15.40;99.90
20366;DHT22;10341;49.894;8.822;2023-05-07T21:54:33;15.40;99.90
20366;DHT22;10341;49.894;8.822;2023-05-07T21:59:52;15.30;99.90
20366;DHT22;10341;49.894;8.822;2023-05-07T22:05:11;15.30;99.90
20366;DHT22;10341;49.894;8.822;2023-05-07T22:10:30;15.30;99.90
20366;DHT22;10341;49.894;8.822;2023-05-07T22:15:49;15.30;99.90
20366;DHT22;10341;49.894;8.822;2023-05-07T22:21:08;15.30;99.90
20366;DHT22;10341;49.894;8.822;2023-05-07T22:26:28;15.30;99.90
20366;DHT22;10341;49.894;8.822;2023-05-07T22:31:48;15.20;99.90
20366;DHT22;10341;49.894;8.822;2023-05-07T22:37:07;15.20;99.90
20366;DHT22;10341;49.894;8.822;2023-05-07T22:42:26;15.20;99.90
20366;DHT22;10341;49.894;8.822;2023-05-07T22:47:45;15.20;99.90
20366;DHT22;10341;49.894;8.822;2023-05-07T22:53:05;15.10;99.90
20366;DHT22;10341;49.894;8.822;2023-05-07T22:58:24;15.10;99.90
20366;DHT22;10341;49.894;8.822;2023-05-07T23:03:44;15.00;99.90
20366;DHT22;10341;49.894;8.822;2023-05-07T23:09:03;15.00;99.90
20366;DHT22;10341;49.894;8.822;2023-05-07T23:14:23;15.00;99.90
20366;DHT22;10341;49.894;8.822;2023-05-07T23:19:42;15.00;99.90
20366;DHT22;10341;49.894;8.822;2023-05-07T23:25:01;15.00;99.90
20366;DHT22;10341;49.894;8.822;2023-05-07T23:30:21;15.00;99.90
20366;DHT22;10341;49.894;8.822;2023-05-07T23:35:40;15.00;99.90
20366;DHT22;10341;49.894;8.822;2023-05-07T23:40:59;14.90;99.90
20366;DHT22;10341;49.894;8.822;2023-05-07T23:46:18;14.90;99.90
20366;DHT22;10341;49.894;8.822;2023-05-07T23:51:38;14.90;99.90
20366;DHT22;10341;49.894;8.822;2023-05-07T23:56:57;14.90;99.90
